Time;durP1;ratioP1;P1;durP2;ratioP2;P2;SDS_P1;SDS_P2;PMS_P1;PMS_P2;Temp;Humidity;BMP_temperature;BMP_pressure;BME280_temperature;BME280_humidity;BME280_pressure;Samples;Min_cycle;Max_cycle;Signal;HPM_P1;HPM_P2
2022/03/06 00:00:07;;;;;;;;;;;;;;;22.17;22.32;98170.94;5073745;28;1099;-72
2022/03/06 00:02:37;;;;;;;;;;;;;;;22.12;22.13;98174.28;5073204;28;1039;-72
2022/03/06 00:05:03;;;;;;;;;;;;;;;22.20;22.12;98170.03;5073913;28;900;-72
2022/03/06 00:07:29;;;;;;;;;;;;;;;22.20;21.44;98107.69;5073579;28;1160;-72
2022/03/06 00:09:54;;;;;;;;;;;;;;;22.50;21.50;98168.03;5073506;28;978;-72
2022/03/06 00:12:19;;;;;;;;;;;;;;;22.47;21.71;98174.59;5073346;28;1067;-72
2022/03/06 00:14:45;;;;;;;;;;;;;;;22.01;22.04;98177.38;5032850;28;1906;-72
2022/03/06 00:17:10;;;;;;;;;;;;;;;22.42;21.80;98169.47;5033470;28;1044;-72
2022/03/06 00:19:36;;;;;;;;;;;;;;;22.35;21.50;98176.94;5033110;28;1102;-72
2022/03/06 00:22:02;;;;;;;;;;;;;;;22.59;21.46;98179.53;5033480;28;1019;-72
2022/03/06 00:24:27;;;;;;;;;;;;;;;22.05;21.86;98180.13;5033353;28;1040;-72
2022/03/06 00:26:53;;;;;;;;;;;;;;;22.23;21.54;98174.84;5037638;28;1046;-72
2022/03/06 00:29:18;;;;;;;;;;;;;;;22.54;21.40;98172.38;5073347;28;1119;-72
2022/03/06 00:31:44;;;;;;;;;;;;;;;22.37;21.61;98162.31;5073073;28;1048;-72
2022/03/06 00:34:09;;;;;;;;;;;;;;;22.71;21.42;98164.59;5073301;28;1981;-72
2022/03/06 00:36:37;;;;;;;;;;;;;;;22.53;21.63;98159.41;5073239;28;1048;-72
2022/03/06 00:39:03;;;;;;;;;;;;;;;22.39;21.79;98147.69;5052819;28;1070;-72
2022/03/06 00:41:28;;;;;;;;;;;;;;;22.27;21.82;98147.16;5053014;28;1175;-72
2022/03/06 00:43:54;;;;;;;;;;;;;;;22.25;21.93;98146.84;5036424;28;1004;-72
2022/03/06 00:46:19;;;;;;;;;;;;;;;22.57;21.28;98137.44;5070407;28;1059;-72
2022/03/06 00:48:45;;;;;;;;;;;;;;;22.20;21.88;98127.53;5036949;28;1192;-72
2022/03/06 00:51:14;;;;;;;;;;;;;;;22.12;22.13;98126.13;5037250;28;1008;-72
2022/03/06 00:53:40;;;;;;;;;;;;;;;22.38;21.60;98129.06;4997232;28;1985;-72
2022/03/06 00:56:05;;;;;;;;;;;;;;;22.39;21.73;98119.34;4997711;28;1125;-72
2022/03/06 00:58:31;;;;;;;;;;;;;;;22.52;21.74;98123.00;4997246;28;1062;-72
2022/03/06 01:00:56;;;;;;;;;;;;;;;22.49;21.55;98124.72;4997351;28;969;-72
2022/03/06 01:03:21;;;;;;;;;;;;;;;22.40;21.69;98126.59;4997407;28;1130;-72
2022/03/06 01:05:47;;;;;;;;;;;;;;;22.45;21.62;98123.22;4997590;28;954;-72
2022/03/06 01:08:12;;;;;;;;;;;;;;;22.44;21.43;98128.09;4981495;28;911;-72
2022/03/06 01:10:38;;;;;;;;;;;;;;;22.24;21.62;98125.41;4977491;28;1015;-72
2022/03/06 01:13:04;;;;;;;;;;;;;;;22.45;21.41;98126.06;4961828;28;1147;-72
2022/03/06 01:15:29;;;;;;;;;;;;;;;22.36;21.66;98127.50;4972324;28;2081;-72
2022/03/06 01:17:55;;;;;;;;;;;;;;;22.29;21.48;98122.03;4961634;28;1008;-72
2022/03/06 01:20:20;;;;;;;;;;;;;;;22.36;21.48;98124.66;4992267;28;1022;-72
2022/03/06 01:22:46;;;;;;;;;;;;;;;22.49;21.62;98123.94;4997537;28;993;-72
2022/03/06 01:25:12;;;;;;;;;;;;;;;22.40;21.53;98120.94;5011021;28;1022;-72
2022/03/06 01:27:37;;;;;;;;;;;;;;;22.40;21.54;98126.59;5016793;28;1134;-72
2022/03/06 01:30:06;;;;;;;;;;;;;;;22.49;21.07;98124.72;5016347;28;964;-72
2022/03/06 01:32:32;;;;;;;;;;;;;;;22.33;21.68;98133.28;4977251;28;1315;-72
2022/03/06 01:34:57;;;;;;;;;;;;;;;22.74;21.04;98129.69;4977498;28;1914;-72
2022/03/06 01:37:23;;;;;;;;;;;;;;;22.42;21.33;98118.44;4977531;28;1061;-72
2022/03/06 01:39:49;;;;;;;;;;;;;;;22.21;21.62;98117.78;4977356;28;917;-72
2022/03/06 01:42:14;;;;;;;;;;;;;;;22.59;21.29;98117.16;5021585;28;964;-72
2022/03/06 01:44:40;;;;;;;;;;;;;;;22.15;21.71;98116.75;5016308;28;1058;-72
2022/03/06 01:47:05;;;;;;;;;;;;;;;22.58;21.09;98109.88;5045696;28;1003;-72
2022/03/06 01:49:31;;;;;;;;;;;;;;;22.59;20.82;98122.81;5039285;28;1074;-72
2022/03/06 01:51:56;;;;;;;;;;;;;;;22.60;20.95;98113.88;5056041;28;1037;-72
2022/03/06 01:54:22;;;;;;;;;;;;;;;21.99;21.68;98097.69;5056195;28;1968;-72
2022/03/06 01:56:47;;;;;;;;;;;;;;;22.83;20.72;98104.25;5055152;28;991;-72
2022/03/06 01:59:12;;;;;;;;;;;;;;;23.06;20.30;98105.25;5015767;28;1241;-72
2022/03/06 02:01:38;;;;;;;;;;;;;;;22.56;21.19;98112.38;5016254;28;950;-72
2022/03/06 02:04:03;;;;;;;;;;;;;;;22.39;21.18;98108.00;5016061;28;1010;-72
2022/03/06 02:06:29;;;;;;;;;;;;;;;22.51;20.95;98095.91;4996073;28;1127;-72
2022/03/06 02:08:54;;;;;;;;;;;;;;;22.08;21.42;98095.03;4996370;28;1044;-72
2022/03/06 02:11:21;;;;;;;;;;;;;;;21.82;21.81;98096.94;4996078;28;1108;-72
2022/03/06 02:13:46;;;;;;;;;;;;;;;22.46;20.98;98102.91;4996008;28;1979;-72
2022/03/06 02:16:11;;;;;;;;;;;;;;;22.41;21.38;98099.84;5024520;28;985;-72
2022/03/06 02:18:37;;;;;;;;;;;;;;;22.29;21.46;98102.19;5035359;28;997;-72
2022/03/06 02:21:09;;;;;;;;;;;;;;;22.59;20.85;98100.94;5035553;28;967;-73
2022/03/06 02:23:34;;;;;;;;;;;;;;;22.37;21.11;98111.28;5015539;28;1012;-72
2022/03/06 02:26:00;;;;;;;;;;;;;;;22.62;21.00;98104.91;5015561;28;961;-72
2022/03/06 02:28:25;;;;;;;;;;;;;;;21.90;21.97;98093.91;5015287;28;1008;-72
2022/03/06 02:30:51;;;;;;;;;;;;;;;22.73;20.91;98107.41;4982642;28;1216;-72
2022/03/06 02:33:16;;;;;;;;;;;;;;;22.32;21.18;98109.78;5015374;28;1274;-72
2022/03/06 02:35:42;;;;;;;;;;;;;;;22.21;21.22;98109.28;5015491;28;1922;-72
2022/03/06 02:38:07;;;;;;;;;;;;;;;22.54;20.89;98114.88;5015171;28;1087;-72
2022/03/06 02:40:38;;;;;;;;;;;;;;;22.00;21.41;98107.00;5015283;28;1229;-72
2022/03/06 02:43:05;;;;;;;;;;;;;;;22.13;21.40;98113.56;5014776;28;1249;-72
2022/03/06 02:45:30;;;;;;;;;;;;;;;22.34;21.26;98112.19;5007613;28;1415;-72
2022/03/06 02:47:56;;;;;;;;;;;;;;;22.08;21.55;98114.09;4956516;29;1107;-72
2022/03/06 02:50:23;;;;;;;;;;;;;;;22.75;20.92;98114.25;4956917;29;1083;-72
2022/03/06 02:52:48;;;;;;;;;;;;;;;22.31;20.97;98116.69;4956832;29;967;-72
2022/03/06 02:55:14;;;;;;;;;;;;;;;22.47;20.92;98123.56;4937391;29;1977;-72
2022/03/06 02:57:39;;;;;;;;;;;;;;;22.86;20.75;98120.41;4937334;29;971;-72
2022/03/06 03:00:05;;;;;;;;;;;;;;;22.77;20.62;98117.41;4937618;29;1165;-72
2022/03/06 03:02:31;;;;;;;;;;;;;;;22.37;21.20;98116.94;4937550;29;1021;-72
2022/03/06 03:04:56;;;;;;;;;;;;;;;22.73;20.96;98121.59;4937394;29;960;-72
2022/03/06 03:07:22;;;;;;;;;;;;;;;22.69;20.70;98120.91;4937346;29;1045;-72
2022/03/06 03:09:47;;;;;;;;;;;;;;;22.24;21.30;98119.75;4952040;28;1039;-72
2022/03/06 03:12:12;;;;;;;;;;;;;;;22.69;20.62;98115.22;4956222;28;1017;-72
2022/03/06 03:14:38;;;;;;;;;;;;;;;22.36;21.37;98116.16;4940177;29;1914;-72
2022/03/06 03:17:03;;;;;;;;;;;;;;;22.70;20.67;98117.63;4984914;28;1025;-72
2022/03/06 03:19:29;;;;;;;;;;;;;;;22.60;20.93;98118.75;5039782;28;942;-72
2022/03/06 03:21:55;;;;;;;;;;;;;;;22.77;20.68;98128.75;5034458;28;1027;-72
2022/03/06 03:24:21;;;;;;;;;;;;;;;22.71;20.63;98127.72;5034495;28;950;-72
2022/03/06 03:26:46;;;;;;;;;;;;;;;22.16;21.21;98126.81;5048504;28;986;-72
2022/03/06 03:29:11;;;;;;;;;;;;;;;22.23;21.05;98118.16;5080020;28;1329;-72
2022/03/06 03:31:37;;;;;;;;;;;;;;;22.66;20.81;98122.63;5083320;28;1223;-72
2022/03/06 03:34:02;;;;;;;;;;;;;;;22.49;20.77;98123.94;5084844;28;1911;-72
2022/03/06 03:36:28;;;;;;;;;;;;;;;22.96;20.30;98129.06;5080030;28;1157;-72
2022/03/06 03:38:56;;;;;;;;;;;;;;;22.66;20.87;98125.44;5084095;28;1291;-72
2022/03/06 03:41:24;;;;;;;;;;;;;;;22.75;20.41;98131.28;5084300;28;1169;-72
2022/03/06 03:43:51;;;;;;;;;;;;;;;22.67;20.35;98129.88;5097756;28;1290;-72
2022/03/06 03:46:16;;;;;;;;;;;;;;;22.48;21.02;98120.28;5098506;28;1187;-72
2022/03/06 03:48:41;;;;;;;;;;;;;;;22.58;20.85;98126.88;5096666;28;952;-72
2022/03/06 03:51:07;;;;;;;;;;;;;;;22.45;20.82;98123.22;5096549;28;967;-72
2022/03/06 03:53:32;;;;;;;;;;;;;;;22.34;20.69;98124.31;5096311;28;1898;-72
2022/03/06 03:55:58;;;;;;;;;;;;;;;22.45;20.89;98114.72;5096418;28;975;-72
2022/03/06 03:58:23;;;;;;;;;;;;;;;22.32;21.15;98118.28;5096777;28;924;-72
2022/03/06 04:00:54;;;;;;;;;;;;;;;22.21;20.92;98119.81;5096387;28;1128;-72
2022/03/06 04:03:20;;;;;;;;;;;;;;;22.18;21.35;98104.53;5096093;28;918;-72
2022/03/06 04:05:45;;;;;;;;;;;;;;;22.33;20.62;98104.94;5096384;28;960;-72
2022/03/06 04:08:11;;;;;;;;;;;;;;;22.32;20.96;98100.47;5096303;28;963;-72
2022/03/06 04:10:36;;;;;;;;;;;;;;;22.73;20.43;98105.38;5096147;28;935;-72
2022/03/06 04:13:02;;;;;;;;;;;;;;;22.22;20.90;98099.53;5096475;28;971;-72
2022/03/06 04:15:27;;;;;;;;;;;;;;;22.55;20.89;98105.13;5095942;28;1976;-72
2022/03/06 04:17:53;;;;;;;;;;;;;;;22.54;20.43;98109.19;5096059;28;933;-72
2022/03/06 04:20:18;;;;;;;;;;;;;;;22.84;20.28;98107.88;5095396;28;1072;-73
2022/03/06 04:22:44;;;;;;;;;;;;;;;22.38;20.52;98100.72;5096078;28;900;-72
2022/03/06 04:25:09;;;;;;;;;;;;;;;22.70;20.45;98105.50;5096430;28;1070;-72
2022/03/06 04:27:34;;;;;;;;;;;;;;;22.25;20.84;98107.16;5096207;28;947;-72
2022/03/06 04:30:00;;;;;;;;;;;;;;;22.76;20.48;98115.84;5095907;28;1060;-72
2022/03/06 04:32:25;;;;;;;;;;;;;;;22.79;20.36;98106.41;5095848;28;1043;-72
2022/03/06 04:34:51;;;;;;;;;;;;;;;22.97;20.32;98096.59;5043521;28;1967;-72
2022/03/06 04:37:16;;;;;;;;;;;;;;;22.61;20.82;98103.31;5096215;28;965;-72
2022/03/06 04:39:42;;;;;;;;;;;;;;;22.85;20.48;98096.13;5095778;28;996;-72
2022/03/06 04:42:07;;;;;;;;;;;;;;;23.01;20.25;98085.94;5095717;28;974;-72
2022/03/06 04:44:32;;;;;;;;;;;;;;;22.55;20.84;98074.72;5095816;28;958;-72
2022/03/06 04:46:58;;;;;;;;;;;;;;;22.52;20.64;98077.66;5095737;28;966;-72
2022/03/06 04:49:23;;;;;;;;;;;;;;;22.99;20.38;98091.25;5095636;28;969;-72
2022/03/06 04:51:49;;;;;;;;;;;;;;;22.81;20.66;98084.06;5095518;28;930;-72
2022/03/06 04:54:14;;;;;;;;;;;;;;;22.41;20.96;98082.84;5095504;28;1905;-72
2022/03/06 04:56:40;;;;;;;;;;;;;;;22.61;20.84;98080.63;5060086;28;1017;-72
2022/03/06 04:59:05;;;;;;;;;;;;;;;22.91;20.27;98087.06;5095570;28;927;-72
2022/03/06 05:01:31;;;;;;;;;;;;;;;22.71;20.42;98081.56;5095519;28;1004;-72
2022/03/06 05:03:56;;;;;;;;;;;;;;;22.29;20.88;98088.00;5095689;28;915;-72
2022/03/06 05:06:22;;;;;;;;;;;;;;;22.55;20.47;98082.44;5095818;28;952;-72
2022/03/06 05:08:47;;;;;;;;;;;;;;;22.16;20.96;98089.19;5095452;28;991;-72
2022/03/06 05:11:13;;;;;;;;;;;;;;;22.53;20.81;98090.56;5059586;28;1065;-72
2022/03/06 05:13:38;;;;;;;;;;;;;;;22.33;20.92;98093.59;5095550;28;1975;-72
2022/03/06 05:16:04;;;;;;;;;;;;;;;22.26;20.83;98094.56;5095610;28;1001;-72
2022/03/06 05:18:29;;;;;;;;;;;;;;;22.49;20.98;98089.91;5095617;28;962;-72
2022/03/06 05:20:54;;;;;;;;;;;;;;;22.46;20.29;98096.47;5095473;28;989;-72
2022/03/06 05:23:20;;;;;;;;;;;;;;;22.83;20.27;98101.41;5095363;28;947;-72
2022/03/06 05:25:46;;;;;;;;;;;;;;;22.67;20.51;98101.50;5095742;28;901;-72
2022/03/06 05:28:11;;;;;;;;;;;;;;;22.90;20.45;98091.94;5094945;28;977;-72
2022/03/06 05:30:37;;;;;;;;;;;;;;;22.61;20.58;98092.75;5095358;28;900;-72
2022/03/06 05:33:02;;;;;;;;;;;;;;;22.69;20.26;98082.00;5096823;28;1213;-72
2022/03/06 05:35:27;;;;;;;;;;;;;;;22.15;21.26;98094.06;5098754;28;1960;-72
2022/03/06 05:37:53;;;;;;;;;;;;;;;22.35;20.66;98091.88;5098691;28;968;-72
2022/03/06 05:40:18;;;;;;;;;;;;;;;22.29;21.00;98088.00;5099019;28;962;-72
2022/03/06 05:42:44;;;;;;;;;;;;;;;22.02;21.11;98085.50;5098938;28;945;-72
2022/03/06 05:45:09;;;;;;;;;;;;;;;22.33;20.87;98094.38;5035693;28;1024;-72
2022/03/06 05:47:35;;;;;;;;;;;;;;;22.58;20.76;98087.19;5036237;28;1001;-72
2022/03/06 05:50:00;;;;;;;;;;;;;;;22.34;20.79;98095.97;5036118;28;1009;-72
2022/03/06 05:52:26;;;;;;;;;;;;;;;22.26;20.69;98097.41;4996470;28;1068;-72
2022/03/06 05:54:51;;;;;;;;;;;;;;;22.71;20.31;98096.53;4996517;28;1985;-72
2022/03/06 05:57:17;;;;;;;;;;;;;;;22.25;20.98;98098.66;4996361;28;1018;-72
2022/03/06 05:59:42;;;;;;;;;;;;;;;22.53;20.57;98107.59;4996456;28;1022;-72
2022/03/06 06:02:08;;;;;;;;;;;;;;;22.57;20.74;98109.06;4996194;28;1861;-72
2022/03/06 06:04:33;;;;;;;;;;;;;;;22.59;20.60;98100.94;4996309;28;1027;-72
2022/03/06 06:06:59;;;;;;;;;;;;;;;22.82;20.24;98102.69;4996048;28;974;-72
2022/03/06 06:09:24;;;;;;;;;;;;;;;22.52;20.85;98111.66;4980169;28;992;-72
2022/03/06 06:11:49;;;;;;;;;;;;;;;22.67;20.73;98118.53;4996294;28;967;-72
2022/03/06 06:14:15;;;;;;;;;;;;;;;22.88;20.42;98117.91;4979901;28;1910;-72
2022/03/06 06:16:40;;;;;;;;;;;;;;;22.58;20.49;98109.88;5024229;28;998;-72
2022/03/06 06:19:06;;;;;;;;;;;;;;;22.93;20.23;98125.09;5018618;28;1253;-72
2022/03/06 06:21:31;;;;;;;;;;;;;;;22.15;21.03;98122.41;5035552;28;990;-72
2022/03/06 06:23:57;;;;;;;;;;;;;;;22.67;20.52;98127.03;5080113;28;928;-73
2022/03/06 06:26:25;;;;;;;;;;;;;;;22.88;20.48;98126.44;5098158;28;1032;-72
2022/03/06 06:28:55;;;;;;;;;;;;;;;22.44;20.83;98130.16;5097809;28;1015;-72
2022/03/06 06:31:22;;;;;;;;;;;;;;;22.32;21.19;98132.47;5098322;28;1014;-72
2022/03/06 06:33:48;;;;;;;;;;;;;;;22.41;21.07;98128.97;5097887;28;1902;-72
2022/03/06 06:36:13;;;;;;;;;;;;;;;22.59;20.60;98134.16;5097837;28;1064;-72
2022/03/06 06:38:38;;;;;;;;;;;;;;;22.81;20.41;98140.00;5055041;28;1142;-72
2022/03/06 06:41:04;;;;;;;;;;;;;;;22.44;21.03;98135.81;5055212;28;1003;-72
2022/03/06 06:43:29;;;;;;;;;;;;;;;22.92;20.60;98128.38;5054494;28;1374;-72
2022/03/06 06:45:55;;;;;;;;;;;;;;;22.94;20.24;98125.88;5055338;28;1038;-72
2022/03/06 06:48:20;;;;;;;;;;;;;;;22.71;20.50;98130.56;5054899;28;1001;-72
2022/03/06 06:50:45;;;;;;;;;;;;;;;22.55;20.93;98124.97;5048288;28;1132;-72
2022/03/06 06:53:11;;;;;;;;;;;;;;;22.67;20.51;98129.88;5034851;28;1045;-73
2022/03/06 06:55:37;;;;;;;;;;;;;;;22.64;20.64;98133.63;5034828;28;1910;-72
2022/03/06 06:58:03;;;;;;;;;;;;;;;22.17;21.03;98127.63;5034888;28;1013;-72
2022/03/06 07:00:28;;;;;;;;;;;;;;;22.23;21.11;98118.16;5045948;28;1185;-72
2022/03/06 07:02:54;;;;;;;;;;;;;;;22.66;20.47;98128.28;5044170;28;1228;-72
2022/03/06 07:05:19;;;;;;;;;;;;;;;22.91;20.28;98123.97;5044623;28;1502;-72
2022/03/06 07:07:44;;;;;;;;;;;;;;;22.74;20.30;98129.69;5054091;28;1242;-72
2022/03/06 07:10:10;;;;;;;;;;;;;;;22.38;20.93;98123.41;5085610;28;965;-72
2022/03/06 07:12:45;;;;;;;;;;;;;;;22.32;21.06;98129.63;5097131;28;946;-72
2022/03/06 07:15:11;;;;;;;;;;;;;;;22.70;20.70;98128.97;5097035;28;1979;-72
2022/03/06 07:17:36;;;;;;;;;;;;;;;22.75;20.59;98127.63;5097444;28;990;-72
2022/03/06 07:20:02;;;;;;;;;;;;;;;23.08;20.14;98123.41;5097279;28;967;-72
2022/03/06 07:22:27;;;;;;;;;;;;;;;22.33;21.14;98128.41;5096898;28;935;-72
2022/03/06 07:24:53;;;;;;;;;;;;;;;22.41;20.64;98131.81;5097007;28;1042;-72
2022/03/06 07:27:18;;;;;;;;;;;;;;;22.35;21.11;98130.78;5096658;28;889;-72
2022/03/06 07:29:44;;;;;;;;;;;;;;;22.94;20.31;98142.91;5097047;28;992;-72
2022/03/06 07:32:09;;;;;;;;;;;;;;;22.51;20.74;98135.59;5096787;28;1110;-72
2022/03/06 07:34:34;;;;;;;;;;;;;;;23.03;20.26;98140.19;5096650;28;1898;-72
2022/03/06 07:37:00;;;;;;;;;;;;;;;22.64;20.72;98133.63;5096783;28;980;-72
2022/03/06 07:39:25;;;;;;;;;;;;;;;22.25;21.21;98144.00;5096730;28;1045;-72
2022/03/06 07:41:51;;;;;;;;;;;;;;;22.95;20.42;98139.63;5096671;28;993;-73
2022/03/06 07:44:16;;;;;;;;;;;;;;;22.47;20.72;98135.69;5096526;28;1140;-72
2022/03/06 07:46:42;;;;;;;;;;;;;;;22.76;20.56;98138.53;5096862;28;915;-72
2022/03/06 07:49:07;;;;;;;;;;;;;;;22.84;20.67;98142.72;5096376;28;957;-72
2022/03/06 07:51:32;;;;;;;;;;;;;;;22.95;20.46;98133.97;5096663;28;1001;-72
2022/03/06 07:53:58;;;;;;;;;;;;;;;22.99;20.44;98134.63;5060309;28;1969;-72
2022/03/06 07:56:23;;;;;;;;;;;;;;;22.83;20.85;98131.84;5095448;28;1065;-72
2022/03/06 07:58:49;;;;;;;;;;;;;;;22.65;20.88;98132.38;5096458;28;947;-73
2022/03/06 08:01:14;;;;;;;;;;;;;;;22.88;20.29;98143.47;5096163;28;948;-72
2022/03/06 08:03:40;;;;;;;;;;;;;;;22.88;20.60;98134.94;5096370;28;978;-72
2022/03/06 08:06:05;;;;;;;;;;;;;;;22.66;20.67;98133.97;5096502;28;869;-72
2022/03/06 08:08:31;;;;;;;;;;;;;;;22.98;20.49;98126.56;5096409;28;944;-72
2022/03/06 08:10:56;;;;;;;;;;;;;;;23.11;20.36;98145.22;5096112;28;1101;-72
2022/03/06 08:13:22;;;;;;;;;;;;;;;22.54;21.26;98134.72;5053409;28;1033;-72
2022/03/06 08:15:47;;;;;;;;;;;;;;;22.82;20.66;98142.41;5053399;28;1989;-73
2022/03/06 08:18:13;;;;;;;;;;;;;;;22.64;20.85;98136.47;5053347;28;1097;-72
2022/03/06 08:20:38;;;;;;;;;;;;;;;22.69;20.67;98138.75;5053107;28;967;-72
2022/03/06 08:23:04;;;;;;;;;;;;;;;22.86;20.42;98143.09;5052949;28;1041;-72
2022/03/06 08:25:30;;;;;;;;;;;;;;;22.73;20.68;98142.25;5036690;28;1014;-72
2022/03/06 08:27:55;;;;;;;;;;;;;;;22.79;20.55;98140.44;5053046;28;1021;-72
2022/03/06 08:30:21;;;;;;;;;;;;;;;23.00;20.61;98129.75;5053022;28;1006;-72
2022/03/06 08:32:46;;;;;;;;;;;;;;;22.58;20.80;98138.22;5052959;28;1623;-73
2022/03/06 08:35:12;;;;;;;;;;;;;;;22.68;20.52;98137.13;5053218;28;1914;-72
2022/03/06 08:37:38;;;;;;;;;;;;;;;22.67;20.83;98129.06;5053340;28;966;-72
2022/03/06 08:40:03;;;;;;;;;;;;;;;22.68;20.54;98137.13;5052813;28;1015;-73
2022/03/06 08:42:29;;;;;;;;;;;;;;;22.45;21.10;98134.56;5052824;28;1022;-72
2022/03/06 08:44:54;;;;;;;;;;;;;;;23.06;20.15;98133.63;5084289;28;917;-72
2022/03/06 08:47:20;;;;;;;;;;;;;;;22.65;20.80;98131.56;5098898;28;1117;-72
2022/03/06 08:49:45;;;;;;;;;;;;;;;22.61;21.14;98143.00;5116356;28;1068;-72
2022/03/06 08:52:11;;;;;;;;;;;;;;;22.88;20.67;98146.28;5116526;28;1038;-72
2022/03/06 08:54:36;;;;;;;;;;;;;;;22.71;20.88;98136.25;5116133;28;1976;-72
2022/03/06 08:57:02;;;;;;;;;;;;;;;22.48;20.97;98127.97;5116005;28;1176;-72
2022/03/06 08:59:27;;;;;;;;;;;;;;;22.83;20.54;98126.16;5116022;28;972;-72
2022/03/06 09:01:55;;;;;;;;;;;;;;;22.83;20.53;98143.19;5116190;28;975;-72
2022/03/06 09:04:24;;;;;;;;;;;;;;;22.67;20.72;98134.75;5079741;28;1201;-72
2022/03/06 09:06:49;;;;;;;;;;;;;;;22.46;21.29;98127.66;5117675;28;902;-72
2022/03/06 09:09:15;;;;;;;;;;;;;;;22.03;21.77;98131.63;5084218;28;950;-72
2022/03/06 09:11:40;;;;;;;;;;;;;;;22.26;21.46;98131.41;5119857;28;1189;-72
2022/03/06 09:14:07;;;;;;;;;;;;;;;21.92;22.05;98139.59;5119793;28;1901;-72
2022/03/06 09:16:32;;;;;;;;;;;;;;;22.38;21.38;98134.75;5101864;28;862;-72
2022/03/06 09:18:58;;;;;;;;;;;;;;;22.06;21.42;98130.72;5119663;28;950;-72
2022/03/06 09:21:23;;;;;;;;;;;;;;;22.00;21.53;98141.00;5119875;28;914;-72
2022/03/06 09:23:49;;;;;;;;;;;;;;;21.91;21.77;98132.31;5119457;28;965;-72
2022/03/06 09:26:14;;;;;;;;;;;;;;;22.21;21.45;98142.50;5119966;28;930;-72
2022/03/06 09:28:39;;;;;;;;;;;;;;;21.70;21.79;98142.94;5119403;28;1052;-72
2022/03/06 09:31:05;;;;;;;;;;;;;;;21.47;22.24;98137.47;5119635;28;1017;-72
2022/03/06 09:33:30;;;;;;;;;;;;;;;22.00;21.73;98138.16;5119491;28;1050;-73
2022/03/06 09:35:56;;;;;;;;;;;;;;;22.01;21.69;98139.75;5119609;28;1972;-72
2022/03/06 09:38:21;;;;;;;;;;;;;;;21.84;21.78;98131.28;5083336;28;981;-72
2022/03/06 09:40:47;;;;;;;;;;;;;;;21.75;21.85;98142.41;5119320;28;942;-72
2022/03/06 09:43:14;;;;;;;;;;;;;;;21.61;21.99;98145.63;5119146;28;892;-72
2022/03/06 09:45:40;;;;;;;;;;;;;;;21.24;22.38;98139.19;5118786;28;952;-72
2022/03/06 09:48:06;;;;;;;;;;;;;;;21.68;22.18;98131.28;5075967;28;1011;-73
2022/03/06 09:50:31;;;;;;;;;;;;;;;21.76;21.86;98129.88;5055819;28;1007;-72
2022/03/06 09:52:57;;;;;;;;;;;;;;;22.13;21.43;98130.56;5016030;28;942;-72
2022/03/06 09:55:22;;;;;;;;;;;;;;;21.99;21.61;98130.91;5015960;28;1910;-73
2022/03/06 09:57:52;;;;;;;;;;;;;;;22.16;21.66;98121.16;5016175;28;974;-73
2022/03/06 10:00:17;;;;;;;;;;;;;;;22.76;20.68;98113.00;4999763;28;989;-72
2022/03/06 10:02:52;;;;;;;;;;;;;;;22.82;20.51;98116.06;5016020;28;968;-72
2022/03/06 10:05:30;;;;;;;;;;;;;;;22.28;21.26;98111.16;5015631;28;1148;-72
2022/03/06 10:08:16;;;;;;;;;;;;;;;21.90;21.45;98108.06;5015779;28;974;-72
2022/03/06 10:10:41;;;;;;;;;;;;;;;22.36;21.11;98104.81;4976797;28;1040;-72
2022/03/06 10:13:07;;;;;;;;;;;;;;;22.57;21.00;98108.28;4957649;28;982;-72
2022/03/06 10:15:35;;;;;;;;;;;;;;;22.62;21.13;98104.91;4956777;28;2068;-72
2022/03/06 10:18:01;;;;;;;;;;;;;;;22.35;21.46;98108.91;4972507;28;1014;-72
2022/03/06 10:20:29;;;;;;;;;;;;;;;22.73;20.64;98108.22;4976506;28;904;-72
2022/03/06 10:22:55;;;;;;;;;;;;;;;22.74;21.02;98101.31;4980763;28;1127;-72
2022/03/06 10:25:21;;;;;;;;;;;;;;;22.94;20.40;98108.84;5035556;28;952;-73
2022/03/06 10:27:49;;;;;;;;;;;;;;;22.94;20.65;98088.97;5035340;28;1065;-72
2022/03/06 10:30:24;;;;;;;;;;;;;;;22.97;20.42;98096.59;5035149;28;1007;-72
2022/03/06 10:32:49;;;;;;;;;;;;;;;22.52;21.09;98091.81;5035001;28;1096;-72
2022/03/06 10:35:15;;;;;;;;;;;;;;;22.86;20.81;98088.38;5015238;28;1902;-73
2022/03/06 10:37:40;;;;;;;;;;;;;;;22.53;21.00;98096.25;5015268;28;1035;-72
2022/03/06 10:40:07;;;;;;;;;;;;;;;22.75;20.74;98087.94;4998797;28;1152;-72
2022/03/06 10:42:33;;;;;;;;;;;;;;;22.67;21.02;98084.50;5015344;28;1087;-72
2022/03/06 10:44:58;;;;;;;;;;;;;;;22.57;21.15;98085.59;4989711;28;1039;-72
2022/03/06 10:47:24;;;;;;;;;;;;;;;23.02;20.35;98087.53;4956641;29;1971;-72
2022/03/06 10:49:59;;;;;;;;;;;;;;;22.49;21.27;98084.22;4956568;29;1020;-72
2022/03/06 10:52:24;;;;;;;;;;;;;;;23.11;20.36;98079.94;4956715;29;1003;-72
2022/03/06 10:54:53;;;;;;;;;;;;;;;22.60;20.81;98073.38;4956734;29;1985;-72
2022/03/06 10:57:19;;;;;;;;;;;;;;;23.03;20.61;98077.75;4956539;29;999;-72
2022/03/06 10:59:45;;;;;;;;;;;;;;;23.20;20.26;98076.41;4956135;29;1010;-72
2022/03/06 11:02:11;;;;;;;;;;;;;;;23.07;20.34;98073.56;4937374;29;1039;-72
2022/03/06 11:04:36;;;;;;;;;;;;;;;22.62;20.75;98070.88;4937169;29;1186;-72
2022/03/06 11:07:02;;;;;;;;;;;;;;;23.02;20.49;98076.19;4937119;29;1050;-72
2022/03/06 11:09:27;;;;;;;;;;;;;;;23.14;20.40;98072.53;4921386;29;1097;-73
2022/03/06 11:11:53;;;;;;;;;;;;;;;22.72;20.84;98063.28;4937101;29;1174;-72
2022/03/06 11:14:18;;;;;;;;;;;;;;;23.06;20.62;98059.84;4937005;29;1915;-72
2022/03/06 11:16:44;;;;;;;;;;;;;;;22.99;20.94;98054.38;4952597;29;1075;-72
2022/03/06 11:19:09;;;;;;;;;;;;;;;23.06;20.83;98048.50;4956396;29;1078;-72
2022/03/06 11:21:35;;;;;;;;;;;;;;;23.20;20.58;98047.22;4956139;28;931;-73
2022/03/06 11:24:01;;;;;;;;;;;;;;;22.80;20.77;98054.13;4978181;28;966;-72
2022/03/06 11:26:35;;;;;;;;;;;;;;;22.75;21.02;98043.34;4974901;28;1113;-72
2022/03/06 11:29:19;;;;;;;;;;;;;;;22.98;20.68;98041.44;4975112;28;1028;-73
2022/03/06 11:31:45;;;;;;;;;;;;;;;22.46;21.52;98039.75;4975075;28;1099;-72
2022/03/06 11:34:11;;;;;;;;;;;;;;;22.37;21.51;98037.56;4993076;28;1915;-72
2022/03/06 11:36:44;;;;;;;;;;;;;;;21.81;22.14;98041.53;4994679;28;956;-72
2022/03/06 11:39:09;;;;;;;;;;;;;;;22.35;21.46;98029.53;4994537;28;1308;-72
2022/03/06 11:41:35;;;;;;;;;;;;;;;22.73;20.95;98037.28;4994520;28;947;-72
2022/03/06 11:44:03;;;;;;;;;;;;;;;22.79;21.04;98029.81;4936507;29;1409;-72
2022/03/06 11:46:29;;;;;;;;;;;;;;;22.54;21.47;98046.81;4936699;29;1369;-72
2022/03/06 11:48:57;;;;;;;;;;;;;;;22.98;20.62;98030.88;4936622;29;1047;-72
2022/03/06 11:51:29;;;;;;;;;;;;;;;22.71;20.95;98039.00;4936704;29;988;-72
2022/03/06 11:54:10;;;;;;;;;;;;;;;22.76;20.89;98036.41;4936449;29;1987;-72
2022/03/06 11:56:36;;;;;;;;;;;;;;;23.15;20.78;98034.38;4936410;29;1124;-72
2022/03/06 11:59:11;;;;;;;;;;;;;;;23.13;20.47;98031.22;4936498;29;1021;-72
2022/03/06 12:01:39;;;;;;;;;;;;;;;22.92;20.83;98026.22;4947060;29;895;-72
2022/03/06 12:04:11;;;;;;;;;;;;;;;23.01;20.72;98018.63;4929601;28;899;-72
2022/03/06 12:06:47;;;;;;;;;;;;;;;22.87;20.77;98017.00;4977736;28;1032;-72
2022/03/06 12:09:15;;;;;;;;;;;;;;;23.27;20.70;98012.94;4978519;28;1074;-72
2022/03/06 12:11:41;;;;;;;;;;;;;;;22.68;20.90;98003.81;5013744;28;1156;-72
2022/03/06 12:14:21;;;;;;;;;;;;;;;22.53;21.23;98000.63;5013468;28;1914;-72
2022/03/06 12:17:02;;;;;;;;;;;;;;;22.25;21.27;98010.78;5013818;28;952;-72
2022/03/06 12:19:27;;;;;;;;;;;;;;;23.03;20.62;98001.16;5013669;28;1039;-72
2022/03/06 12:22:07;;;;;;;;;;;;;;;23.06;20.62;98003.09;5053083;28;1299;-72
2022/03/06 12:24:32;;;;;;;;;;;;;;;23.26;20.58;98006.47;5070188;28;1324;-72
2022/03/06 12:26:58;;;;;;;;;;;;;;;22.92;20.92;98009.22;5072630;28;1324;-72
2022/03/06 12:29:42;;;;;;;;;;;;;;;22.65;21.27;98007.56;5072848;28;1604;-72
2022/03/06 12:32:25;;;;;;;;;;;;;;;22.43;21.37;98017.97;5053019;28;1062;-72
2022/03/06 12:35:09;;;;;;;;;;;;;;;22.62;21.10;98008.47;5053238;28;1997;-72
2022/03/06 12:37:42;;;;;;;;;;;;;;;21.83;22.19;98005.06;5069614;28;1028;-72
2022/03/06 12:40:14;;;;;;;;;;;;;;;22.16;22.10;97996.47;5074539;28;947;-72
2022/03/06 12:42:40;;;;;;;;;;;;;;;22.40;21.70;98007.53;5081474;28;952;-72
2022/03/06 12:45:09;;;;;;;;;;;;;;;22.84;20.87;98009.38;5082219;28;880;-72
2022/03/06 12:47:35;;;;;;;;;;;;;;;22.71;21.18;98002.94;5104501;28;1407;-72
2022/03/06 12:50:00;;;;;;;;;;;;;;;22.84;20.87;98006.56;5082199;28;1161;-72
2022/03/06 12:52:26;;;;;;;;;;;;;;;22.63;21.50;98004.38;5039302;28;2032;-72
2022/03/06 12:54:53;;;;;;;;;;;;;;;22.88;20.87;97995.13;5039148;28;1985;-72